EW1707 Weather Reports


Display with metric or nautical units.
time (UTC)temp
F
wind
direction
speed
MPH
gust
MPH
rain 1hr
in
rain 24hr
in
rain mn
in
humidity
%
barometer
mb
20210917154616 40 360 0.0 4.0 0.00 0.00 0.00 87 1019.7
20210917153120 39 360 0.0 3.0 0.00 0.00 0.00 88 1019.6
20210917151605 38 360 0.0 4.0 0.00 0.00 0.00 89 1019.5
20210917150114 38 49 0.0 3.0 0.00 0.00 0.00 90 1019.4
20210917144614 37 360 0.0 2.0 0.00 0.00 0.00 90 1019.2
20210917143120 37 49 0.0 2.0 0.00 0.00 0.00 90 1019.0
20210917141619 37 49 0.0 2.0 0.00 0.00 0.00 90 1018.9
20210917140134 37 48 0.0 2.0 0.00 0.00 0.00 90 1018.7
20210917134637 36 47 0.0 3.0 0.00 0.00 0.00 90 1018.5
20210917133140 37 46 0.0 2.0 0.00 0.00 0.00 89 1018.1
20210917131602 36 46 0.0 2.0 0.00 0.00 0.00 88 1017.9
20210917130051 37 46 0.0 2.0 0.00 0.00 0.00 87 1017.5
20210917124622 37 46 0.0 4.0 0.00 0.00 0.00 87 1017.3
20210917123032 37 360 0.0 0.0 0.00 0.00 0.00 87 1017.1
20210917121536 37 360 0.0 3.0 0.00 0.00 0.00 86 1016.8
20210917120023 38 360 0.0 0.0 0.00 0.00 0.00 84 1016.5
20210917114535 38 360 0.0 2.0 0.00 0.00 0.00 83 1016.2
20210917113031 39 360 0.0 4.0 0.00 0.00 0.00 82 1016.0
20210917111515 40 360 0.0 3.0 0.00 0.00 0.00 82 1015.7
20210917110019 40 360 0.0 2.0 0.00 0.00 0.00 82 1015.3
20210917104520 40 360 1.0 2.0 0.00 0.00 0.00 80 1015.1
20210917103007 41 360 1.0 3.0 0.00 0.00 0.00 78 1015.1
20210917101511 42 360 0.0 2.0 0.00 0.00 0.00 77 1014.9
20210917100134 42 360 0.0 0.0 0.00 0.00 0.00 77 1014.8
20210917094619 43 360 0.0 0.0 0.00 0.00 0.00 77 1014.5
20210917093053 44 360 0.0 2.0 0.00 0.00 0.00 75 1014.4
20210917091641 45 360 0.0 0.0 0.00 0.00 0.00 71 1014.2
20210917090058 45 360 1.0 3.0 0.00 0.00 0.00 69 1013.9
20210917084559 46 360 0.0 2.0 0.00 0.00 0.00 69 1013.6
20210917083112 47 360 0.0 2.0 0.00 0.00 0.00 69 1013.6
20210917081555 47 360 0.0 4.0 0.00 0.00 0.00 67 1013.5
20210917080052 48 360 2.0 7.0 0.00 0.00 0.00 65 1013.6
20210917074612 50 38 3.0 10.0 0.00 0.00 0.00 60 1013.5
20210917073041 52 22 5.0 12.0 0.00 0.00 0.00 53 1013.3
20210917071522 54 51 0.0 6.0 0.00 0.00 0.00 42 1012.7
20210917070037 56 360 2.0 8.0 0.00 0.00 0.00 37 1012.1
20210917064523 57 40 3.0 7.0 0.00 0.00 0.00 28 1011.7
20210917063016 59 288 1.0 7.0 0.00 0.00 0.00 21 1011.1
20210917061507 60 283 3.0 8.0 0.00 0.00 0.00 20 1010.6
20210917060003 60 360 4.0 14.0 0.00 0.00 0.00 20 1010.2
20210917054501 60 279 4.0 15.0 0.00 0.00 0.00 21 1009.8
20210917053001 60 360 6.0 13.0 0.00 0.00 0.00 21 1009.7
20210917051648 60 360 5.0 15.0 0.00 0.00 0.00 21 1009.4
20210917050245 60 360 8.0 15.0 0.00 0.00 0.00 22 1009.6
20210917044715 60 251 7.0 15.0 0.00 0.00 0.00 23 1009.5
20210917043158 60 360 6.0 11.0 0.00 0.00 0.00 24 1009.4
20210917041639 60 360 5.0 14.0 0.00 0.00 0.00 25 1009.3
20210917040125 60 360 6.0 12.0 0.00 0.00 0.00 25 1009.3
20210917034639 60 360 4.0 10.0 0.00 0.00 0.00 25 1009.3
20210917033149 61 360 3.0 10.0 0.00 0.00 0.00 24 1009.0
20210917031646 62 360 4.0 10.0 0.00 0.00 0.00 24 1009.0
20210917030124 62 360 4.0 18.0 0.00 0.00 0.00 24 1008.8
20210917024645 61 360 5.0 12.0 0.00 0.00 0.00 24 1008.7
20210917023151 61 360 5.0 13.0 0.00 0.00 0.00 24 1008.5
20210917021656 60 322 2.0 8.0 0.00 0.00 0.00 24 1008.1
20210917020130 61 325 1.0 6.0 0.00 0.00 0.00 24 1008.0
20210917014640 62 325 2.0 6.0 0.00 0.00 0.00 23 1007.7
20210917013140 63 325 0.0 3.0 0.00 0.00 0.00 21 1007.5
20210917011700 65 325 0.0 3.0 0.00 0.00 0.00 20 1007.2
20210917010103 67 325 0.0 0.0 0.00 0.00 0.00 19 1007.0
20210917004626 68 325 0.0 4.0 0.00 0.00 0.00 18 1006.9
20210917003127 69 325 1.0 9.0 0.00 0.00 0.00 17 1006.8
20210917001610 70 284 5.0 10.0 0.00 0.00 0.00 16 1006.8
20210917000204 71 298 1.0 10.0 0.00 0.00 0.00 16 1006.4
20210916234646 72 332 1.0 8.0 0.00 0.00 0.00 15 1006.0
20210916233151 73 296 4.0 11.0 0.00 0.00 0.00 15 1005.9
20210916231617 74 355 1.0 6.0 0.00 0.00 0.00 15 1005.8
20210916230134 74 44 1.0 5.0 0.00 0.00 0.00 15 1005.8
20210916224657 74 63 1.0 8.0 0.00 0.00 0.00 15 1005.7
20210916223238 73 39 5.0 11.0 0.00 0.00 0.00 16 1005.4
20210916221629 72 47 1.0 8.0 0.00 0.00 0.00 16 1005.6
20210916220105 72 38 0.0 3.0 0.00 0.00 0.00 15 1005.6
20210916214556 73 38 3.0 7.0 0.00 0.00 0.00 15 1005.7
20210916213124 74 28 2.0 7.0 0.00 0.00 0.00 14 1005.5
20210916211651 76 346 1.0 6.0 0.00 0.00 0.00 14 1005.7
20210916210125 76 340 5.0 15.0 0.00 0.00 0.00 14 1005.7
20210916204616 74 302 5.0 9.0 0.00 0.00 0.00 15 1005.7
20210916203138 74 90 1.0 5.0 0.00 0.00 0.00 14 1005.9
20210916201624 74 360 1.0 4.0 0.00 0.00 0.00 13 1006.2
20210916200057 74 84 0.0 4.0 0.00 0.00 0.00 13 1006.1
20210916194644 76 102 2.0 9.0 0.00 0.00 0.00 13 1006.3
20210916193049 77 360 1.0 4.0 0.00 0.00 0.00 12 1006.4
20210916191559 79 42 2.0 11.0 0.00 0.00 0.00 11 1006.5
20210916190033 77 23 5.0 11.0 0.00 0.00 0.00 12 1006.6
20210916184606 79 331 6.0 26.0 0.00 0.00 0.00 11 1006.7
20210916183028 79 360 4.0 13.0 0.00 0.00 0.00 10 1006.8
20210916181532 78 360 6.0 17.0 0.00 0.00 0.00 11 1006.9
20210916180052 78 152 4.0 13.0 0.00 0.00 0.00 11 1007.1
20210916174531 76 333 6.0 13.0 0.00 0.00 0.00 13 1007.0
20210916173030 76 332 3.0 10.0 0.00 0.00 0.00 14 1007.4
20210916171523 76 326 1.0 11.0 0.00 0.00 0.00 14 1007.7
20210916170013 75 336 3.0 13.0 0.00 0.00 0.00 14 1007.9
20210916164510 74 313 2.0 11.0 0.00 0.00 0.00 15 1008.1
20210916163021 73 330 6.0 13.0 0.00 0.00 0.00 15 1008.5
20210916161502 73 323 6.0 14.0 0.00 0.00 0.00 17 1008.6
20210916160305 71 360 5.0 17.0 0.00 0.00 0.00 17 1008.9